sensor_id;sensor_type;location;lat;lon;timestamp;P1;durP1;ratioP1;P2;durP2;ratioP2
23519;SDS011;11936;50.820;4.336;2022-09-27T00:00:25;5.38;;;1.23;;
23519;SDS011;11936;50.820;4.336;2022-09-27T00:02:51;6.60;;;1.00;;
23519;SDS011;11936;50.820;4.336;2022-09-27T00:05:16;2.00;;;0.88;;
23519;SDS011;11936;50.820;4.336;2022-09-27T00:07:42;6.90;;;1.10;;
23519;SDS011;11936;50.820;4.336;2022-09-27T00:10:09;6.90;;;1.63;;
23519;SDS011;11936;50.820;4.336;2022-09-27T00:12:35;3.22;;;1.00;;
23519;SDS011;11936;50.820;4.336;2022-09-27T00:15:01;7.18;;;1.08;;
23519;SDS011;11936;50.820;4.336;2022-09-27T00:17:28;4.47;;;0.98;;
23519;SDS011;11936;50.820;4.336;2022-09-27T00:19:54;5.88;;;1.40;;
23519;SDS011;11936;50.820;4.336;2022-09-27T00:22:21;3.20;;;0.90;;
23519;SDS011;11936;50.820;4.336;2022-09-27T00:24:48;1.93;;;0.73;;
23519;SDS011;11936;50.820;4.336;2022-09-27T00:27:13;3.17;;;0.93;;
23519;SDS011;11936;50.820;4.336;2022-09-27T00:29:39;3.50;;;1.15;;
23519;SDS011;11936;50.820;4.336;2022-09-27T00:32:04;5.32;;;0.93;;
23519;SDS011;11936;50.820;4.336;2022-09-27T00:34:30;2.47;;;1.00;;
23519;SDS011;11936;50.820;4.336;2022-09-27T00:36:56;4.43;;;0.90;;
23519;SDS011;11936;50.820;4.336;2022-09-27T00:39:22;7.32;;;1.20;;
23519;SDS011;11936;50.820;4.336;2022-09-27T00:41:48;4.28;;;1.17;;
23519;SDS011;11936;50.820;4.336;2022-09-27T00:46:59;5.60;;;1.25;;
23519;SDS011;11936;50.820;4.336;2022-09-27T00:49:47;5.25;;;1.30;;
23519;SDS011;11936;50.820;4.336;2022-09-27T00:52:27;1.95;;;0.90;;
23519;SDS011;11936;50.820;4.336;2022-09-27T00:55:02;3.47;;;1.10;;
23519;SDS011;11936;50.820;4.336;2022-09-27T00:57:33;6.63;;;1.52;;
23519;SDS011;11936;50.820;4.336;2022-09-27T01:00:00;3.40;;;0.93;;
23519;SDS011;11936;50.820;4.336;2022-09-27T01:02:29;5.63;;;1.05;;
23519;SDS011;11936;50.820;4.336;2022-09-27T01:04:55;4.53;;;0.93;;
23519;SDS011;11936;50.820;4.336;2022-09-27T01:07:21;7.20;;;1.35;;
23519;SDS011;11936;50.820;4.336;2022-09-27T01:09:47;3.45;;;1.30;;
23519;SDS011;11936;50.820;4.336;2022-09-27T01:12:23;4.10;;;0.93;;
23519;SDS011;11936;50.820;4.336;2022-09-27T01:15:28;3.50;;;0.95;;
23519;SDS011;11936;50.820;4.336;2022-09-27T01:18:29;6.47;;;1.17;;
23519;SDS011;11936;50.820;4.336;2022-09-27T01:29:14;4.68;;;1.30;;
23519;SDS011;11936;50.820;4.336;2022-09-27T01:32:10;2.28;;;0.82;;
23519;SDS011;11936;50.820;4.336;2022-09-27T01:40:55;1.92;;;1.05;;
23519;SDS011;11936;50.820;4.336;2022-09-27T01:43:38;3.40;;;1.10;;
23519;SDS011;11936;50.820;4.336;2022-09-27T01:46:20;4.60;;;1.00;;
23519;SDS011;11936;50.820;4.336;2022-09-27T01:48:50;5.50;;;1.00;;
23519;SDS011;11936;50.820;4.336;2022-09-27T01:51:22;3.08;;;0.93;;
23519;SDS011;11936;50.820;4.336;2022-09-27T01:53:55;3.95;;;0.98;;
23519;SDS011;11936;50.820;4.336;2022-09-27T01:56:38;4.18;;;1.00;;
23519;SDS011;11936;50.820;4.336;2022-09-27T01:59:10;1.10;;;0.70;;
23519;SDS011;11936;50.820;4.336;2022-09-27T02:01:40;2.72;;;0.88;;
23519;SDS011;11936;50.820;4.336;2022-09-27T02:04:10;5.75;;;1.10;;
23519;SDS011;11936;50.820;4.336;2022-09-27T02:06:40;4.35;;;0.90;;
23519;SDS011;11936;50.820;4.336;2022-09-27T02:09:19;4.25;;;1.00;;
23519;SDS011;11936;50.820;4.336;2022-09-27T02:11:52;3.38;;;0.93;;
23519;SDS011;11936;50.820;4.336;2022-09-27T02:14:22;9.43;;;1.42;;
23519;SDS011;11936;50.820;4.336;2022-09-27T02:16:54;2.20;;;1.20;;
23519;SDS011;11936;50.820;4.336;2022-09-27T02:20:06;5.18;;;1.55;;
23519;SDS011;11936;50.820;4.336;2022-09-27T02:25:33;6.07;;;0.90;;
23519;SDS011;11936;50.820;4.336;2022-09-27T02:28:42;3.90;;;1.15;;
23519;SDS011;11936;50.820;4.336;2022-09-27T02:31:03;4.78;;;1.08;;
23519;SDS011;11936;50.820;4.336;2022-09-27T02:33:36;2.13;;;0.93;;
23519;SDS011;11936;50.820;4.336;2022-09-27T02:36:06;6.10;;;1.42;;
23519;SDS011;11936;50.820;4.336;2022-09-27T02:38:33;3.00;;;1.00;;
23519;SDS011;11936;50.820;4.336;2022-09-27T02:40:59;4.95;;;0.88;;
23519;SDS011;11936;50.820;4.336;2022-09-27T02:43:26;3.10;;;1.42;;
23519;SDS011;11936;50.820;4.336;2022-09-27T02:45:59;2.50;;;1.10;;
23519;SDS011;11936;50.820;4.336;2022-09-27T02:48:38;1.70;;;1.00;;
23519;SDS011;11936;50.820;4.336;2022-09-27T02:59:49;4.38;;;1.27;;
23519;SDS011;11936;50.820;4.336;2022-09-27T03:05:27;3.85;;;1.00;;
23519;SDS011;11936;50.820;4.336;2022-09-27T03:07:56;4.03;;;1.10;;
23519;SDS011;11936;50.820;4.336;2022-09-27T03:10:24;4.47;;;1.30;;
23519;SDS011;11936;50.820;4.336;2022-09-27T03:12:51;3.58;;;1.38;;
23519;SDS011;11936;50.820;4.336;2022-09-27T03:15:18;3.65;;;1.20;;
23519;SDS011;11936;50.820;4.336;2022-09-27T03:17:44;2.13;;;1.10;;
23519;SDS011;11936;50.820;4.336;2022-09-27T03:20:10;4.63;;;1.20;;
23519;SDS011;11936;50.820;4.336;2022-09-27T03:22:36;2.38;;;1.00;;
23519;SDS011;11936;50.820;4.336;2022-09-27T03:25:03;2.78;;;1.42;;
23519;SDS011;11936;50.820;4.336;2022-09-27T03:27:30;2.45;;;1.13;;
23519;SDS011;11936;50.820;4.336;2022-09-27T03:29:55;4.97;;;1.10;;
23519;SDS011;11936;50.820;4.336;2022-09-27T03:32:22;3.03;;;1.13;;
23519;SDS011;11936;50.820;4.336;2022-09-27T03:34:47;2.85;;;1.20;;
23519;SDS011;11936;50.820;4.336;2022-09-27T03:37:13;4.97;;;1.10;;
23519;SDS011;11936;50.820;4.336;2022-09-27T03:39:38;4.55;;;0.98;;
23519;SDS011;11936;50.820;4.336;2022-09-27T03:42:04;3.33;;;1.20;;
23519;SDS011;11936;50.820;4.336;2022-09-27T03:44:30;5.53;;;1.38;;
23519;SDS011;11936;50.820;4.336;2022-09-27T03:46:56;3.83;;;1.75;;
23519;SDS011;11936;50.820;4.336;2022-09-27T03:49:22;5.28;;;1.30;;
23519;SDS011;11936;50.820;4.336;2022-09-27T03:51:48;2.80;;;1.20;;
23519;SDS011;11936;50.820;4.336;2022-09-27T03:54:14;3.42;;;1.48;;
23519;SDS011;11936;50.820;4.336;2022-09-27T03:56:40;4.57;;;1.55;;
23519;SDS011;11936;50.820;4.336;2022-09-27T03:59:05;6.10;;;1.60;;
23519;SDS011;11936;50.820;4.336;2022-09-27T04:01:31;5.35;;;1.33;;
23519;SDS011;11936;50.820;4.336;2022-09-27T04:03:58;3.33;;;1.35;;
23519;SDS011;11936;50.820;4.336;2022-09-27T04:06:23;4.93;;;1.95;;
23519;SDS011;11936;50.820;4.336;2022-09-27T04:08:51;2.60;;;1.73;;
23519;SDS011;11936;50.820;4.336;2022-09-27T04:11:17;3.60;;;1.40;;
23519;SDS011;11936;50.820;4.336;2022-09-27T04:13:43;4.13;;;1.33;;
23519;SDS011;11936;50.820;4.336;2022-09-27T04:16:09;6.13;;;2.03;;
23519;SDS011;11936;50.820;4.336;2022-09-27T04:18:34;5.63;;;2.03;;
23519;SDS011;11936;50.820;4.336;2022-09-27T04:21:00;3.97;;;1.60;;
23519;SDS011;11936;50.820;4.336;2022-09-27T04:23:26;3.05;;;1.30;;
23519;SDS011;11936;50.820;4.336;2022-09-27T04:25:52;4.10;;;1.38;;
23519;SDS011;11936;50.820;4.336;2022-09-27T04:28:18;3.58;;;1.52;;
23519;SDS011;11936;50.820;4.336;2022-09-27T04:30:44;4.35;;;1.48;;
23519;SDS011;11936;50.820;4.336;2022-09-27T04:33:10;2.58;;;1.90;;
23519;SDS011;11936;50.820;4.336;2022-09-27T04:35:36;2.80;;;2.00;;
23519;SDS011;11936;50.820;4.336;2022-09-27T04:38:20;2.72;;;2.00;;
23519;SDS011;11936;50.820;4.336;2022-09-27T04:40:48;3.08;;;2.13;;
23519;SDS011;11936;50.820;4.336;2022-09-27T04:43:14;3.40;;;2.17;;
23519;SDS011;11936;50.820;4.336;2022-09-27T04:45:41;3.75;;;2.42;;
23519;SDS011;11936;50.820;4.336;2022-09-27T04:48:07;5.50;;;2.47;;
23519;SDS011;11936;50.820;4.336;2022-09-27T04:50:33;6.63;;;2.45;;
23519;SDS011;11936;50.820;4.336;2022-09-27T04:52:59;3.25;;;2.10;;
23519;SDS011;11936;50.820;4.336;2022-09-27T04:55:25;6.60;;;2.45;;
23519;SDS011;11936;50.820;4.336;2022-09-27T04:57:51;6.22;;;2.35;;
23519;SDS011;11936;50.820;4.336;2022-09-27T05:00:17;4.05;;;2.30;;
23519;SDS011;11936;50.820;4.336;2022-09-27T05:02:43;4.82;;;2.30;;
23519;SDS011;11936;50.820;4.336;2022-09-27T05:05:10;7.50;;;2.35;;
23519;SDS011;11936;50.820;4.336;2022-09-27T05:07:36;7.07;;;2.42;;
23519;SDS011;11936;50.820;4.336;2022-09-27T05:10:03;6.78;;;2.63;;
23519;SDS011;11936;50.820;4.336;2022-09-27T05:12:29;5.07;;;2.10;;
23519;SDS011;11936;50.820;4.336;2022-09-27T05:14:55;8.15;;;1.60;;
23519;SDS011;11936;50.820;4.336;2022-09-27T05:17:21;4.63;;;2.72;;
23519;SDS011;11936;50.820;4.336;2022-09-27T05:19:47;7.32;;;2.17;;
23519;SDS011;11936;50.820;4.336;2022-09-27T05:22:13;5.47;;;2.17;;
23519;SDS011;11936;50.820;4.336;2022-09-27T05:24:39;5.00;;;2.20;;
23519;SDS011;11936;50.820;4.336;2022-09-27T05:27:06;3.45;;;2.15;;
23519;SDS011;11936;50.820;4.336;2022-09-27T05:29:33;5.10;;;2.53;;
23519;SDS011;11936;50.820;4.336;2022-09-27T05:32:00;5.05;;;2.50;;
23519;SDS011;11936;50.820;4.336;2022-09-27T05:34:26;3.28;;;1.90;;
23519;SDS011;11936;50.820;4.336;2022-09-27T05:36:51;2.90;;;1.67;;
23519;SDS011;11936;50.820;4.336;2022-09-27T05:39:17;4.85;;;2.40;;
23519;SDS011;11936;50.820;4.336;2022-09-27T05:41:43;9.13;;;2.53;;
23519;SDS011;11936;50.820;4.336;2022-09-27T05:44:14;5.28;;;2.10;;
23519;SDS011;11936;50.820;4.336;2022-09-27T05:46:40;2.10;;;1.77;;
23519;SDS011;11936;50.820;4.336;2022-09-27T05:49:05;2.92;;;2.08;;
23519;SDS011;11936;50.820;4.336;2022-09-27T05:51:31;3.50;;;1.50;;
23519;SDS011;11936;50.820;4.336;2022-09-27T05:53:57;3.05;;;1.67;;
23519;SDS011;11936;50.820;4.336;2022-09-27T05:56:23;4.03;;;1.52;;
23519;SDS011;11936;50.820;4.336;2022-09-27T05:58:51;3.65;;;1.95;;
23519;SDS011;11936;50.820;4.336;2022-09-27T06:01:17;3.17;;;1.45;;
23519;SDS011;11936;50.820;4.336;2022-09-27T06:03:43;4.88;;;1.67;;
23519;SDS011;11936;50.820;4.336;2022-09-27T06:06:10;4.00;;;1.70;;
23519;SDS011;11936;50.820;4.336;2022-09-27T06:08:36;4.05;;;1.70;;
23519;SDS011;11936;50.820;4.336;2022-09-27T06:11:04;2.22;;;1.88;;
23519;SDS011;11936;50.820;4.336;2022-09-27T06:13:32;2.35;;;1.65;;
23519;SDS011;11936;50.820;4.336;2022-09-27T06:16:00;2.87;;;1.57;;
23519;SDS011;11936;50.820;4.336;2022-09-27T06:18:26;5.00;;;1.73;;
23519;SDS011;11936;50.820;4.336;2022-09-27T06:20:52;3.45;;;1.45;;
23519;SDS011;11936;50.820;4.336;2022-09-27T06:23:19;7.88;;;2.38;;
23519;SDS011;11936;50.820;4.336;2022-09-27T06:25:49;2.90;;;1.70;;
23519;SDS011;11936;50.820;4.336;2022-09-27T06:28:16;3.53;;;1.58;;
23519;SDS011;11936;50.820;4.336;2022-09-27T06:30:43;4.38;;;1.67;;
23519;SDS011;11936;50.820;4.336;2022-09-27T06:33:11;4.47;;;1.85;;
23519;SDS011;11936;50.820;4.336;2022-09-27T06:35:41;5.50;;;1.98;;
23519;SDS011;11936;50.820;4.336;2022-09-27T06:38:09;3.83;;;1.73;;
23519;SDS011;11936;50.820;4.336;2022-09-27T06:40:37;3.43;;;2.00;;
23519;SDS011;11936;50.820;4.336;2022-09-27T06:43:03;4.78;;;2.05;;
23519;SDS011;11936;50.820;4.336;2022-09-27T06:45:32;8.75;;;1.95;;
23519;SDS011;11936;50.820;4.336;2022-09-27T06:47:59;4.55;;;1.80;;
23519;SDS011;11936;50.820;4.336;2022-09-27T06:50:33;4.07;;;1.50;;
23519;SDS011;11936;50.820;4.336;2022-09-27T06:53:00;7.03;;;2.03;;
23519;SDS011;11936;50.820;4.336;2022-09-27T06:55:26;3.95;;;2.55;;
23519;SDS011;11936;50.820;4.336;2022-09-27T06:57:55;4.30;;;2.08;;
23519;SDS011;11936;50.820;4.336;2022-09-27T07:00:41;4.38;;;2.10;;
23519;SDS011;11936;50.820;4.336;2022-09-27T07:03:10;9.65;;;2.80;;
23519;SDS011;11936;50.820;4.336;2022-09-27T07:05:38;5.55;;;2.70;;
23519;SDS011;11936;50.820;4.336;2022-09-27T07:08:06;6.93;;;2.50;;
23519;SDS011;11936;50.820;4.336;2022-09-27T07:10:34;5.20;;;2.63;;
23519;SDS011;11936;50.820;4.336;2022-09-27T07:13:08;6.25;;;2.65;;
23519;SDS011;11936;50.820;4.336;2022-09-27T07:15:39;4.05;;;2.63;;
23519;SDS011;11936;50.820;4.336;2022-09-27T07:18:06;7.18;;;3.03;;
23519;SDS011;11936;50.820;4.336;2022-09-27T07:20:33;4.55;;;2.33;;
23519;SDS011;11936;50.820;4.336;2022-09-27T07:23:02;3.85;;;2.25;;
23519;SDS011;11936;50.820;4.336;2022-09-27T07:25:29;4.00;;;2.50;;
23519;SDS011;11936;50.820;4.336;2022-09-27T07:27:59;3.92;;;2.38;;
23519;SDS011;11936;50.820;4.336;2022-09-27T07:30:28;3.25;;;2.17;;
23519;SDS011;11936;50.820;4.336;2022-09-27T07:32:57;3.58;;;1.88;;
23519;SDS011;11936;50.820;4.336;2022-09-27T07:35:24;5.97;;;2.53;;
23519;SDS011;11936;50.820;4.336;2022-09-27T07:37:51;6.10;;;2.70;;
23519;SDS011;11936;50.820;4.336;2022-09-27T07:40:16;3.75;;;2.33;;
23519;SDS011;11936;50.820;4.336;2022-09-27T07:42:42;3.55;;;2.55;;
23519;SDS011;11936;50.820;4.336;2022-09-27T07:45:08;8.23;;;2.78;;
23519;SDS011;11936;50.820;4.336;2022-09-27T07:47:36;4.90;;;2.20;;
23519;SDS011;11936;50.820;4.336;2022-09-27T07:50:03;3.08;;;2.50;;
23519;SDS011;11936;50.820;4.336;2022-09-27T07:52:40;6.38;;;2.42;;
23519;SDS011;11936;50.820;4.336;2022-09-27T07:55:08;6.00;;;2.67;;
23519;SDS011;11936;50.820;4.336;2022-09-27T07:57:35;5.35;;;2.67;;
23519;SDS011;11936;50.820;4.336;2022-09-27T08:00:05;5.57;;;2.53;;
23519;SDS011;11936;50.820;4.336;2022-09-27T08:02:32;6.35;;;2.42;;
23519;SDS011;11936;50.820;4.336;2022-09-27T08:04:58;7.13;;;2.92;;
23519;SDS011;11936;50.820;4.336;2022-09-27T08:07:24;4.70;;;2.58;;
23519;SDS011;11936;50.820;4.336;2022-09-27T08:09:50;9.05;;;2.72;;
23519;SDS011;11936;50.820;4.336;2022-09-27T08:12:16;6.88;;;2.88;;
23519;SDS011;11936;50.820;4.336;2022-09-27T08:14:43;5.10;;;2.05;;
23519;SDS011;11936;50.820;4.336;2022-09-27T08:17:09;4.68;;;2.05;;
23519;SDS011;11936;50.820;4.336;2022-09-27T08:19:35;3.80;;;1.95;;
23519;SDS011;11936;50.820;4.336;2022-09-27T08:22:01;4.70;;;2.10;;
23519;SDS011;11936;50.820;4.336;2022-09-27T08:24:26;6.28;;;2.53;;
23519;SDS011;11936;50.820;4.336;2022-09-27T08:26:53;4.70;;;1.70;;
23519;SDS011;11936;50.820;4.336;2022-09-27T08:29:19;3.70;;;1.85;;
23519;SDS011;11936;50.820;4.336;2022-09-27T08:31:44;7.40;;;2.03;;
23519;SDS011;11936;50.820;4.336;2022-09-27T08:34:10;5.38;;;1.83;;
23519;SDS011;11936;50.820;4.336;2022-09-27T08:36:36;2.38;;;1.20;;
23519;SDS011;11936;50.820;4.336;2022-09-27T08:39:02;2.85;;;1.38;;
23519;SDS011;11936;50.820;4.336;2022-09-27T08:41:46;1.75;;;1.52;;
23519;SDS011;11936;50.820;4.336;2022-09-27T08:44:26;2.22;;;1.20;;
23519;SDS011;11936;50.820;4.336;2022-09-27T08:47:01;5.97;;;2.28;;
23519;SDS011;11936;50.820;4.336;2022-09-27T08:52:34;3.70;;;1.73;;
23519;SDS011;11936;50.820;4.336;2022-09-27T08:57:26;2.35;;;1.50;;
23519;SDS011;11936;50.820;4.336;2022-09-27T09:00:01;5.55;;;2.05;;
23519;SDS011;11936;50.820;4.336;2022-09-27T09:02:30;5.78;;;1.60;;
23519;SDS011;11936;50.820;4.336;2022-09-27T09:04:57;2.80;;;1.30;;
23519;SDS011;11936;50.820;4.336;2022-09-27T09:07:47;2.60;;;1.50;;
23519;SDS011;11936;50.820;4.336;2022-09-27T09:13:39;2.65;;;1.50;;
23519;SDS011;11936;50.820;4.336;2022-09-27T09:21:48;3.47;;;1.42;;
23519;SDS011;11936;50.820;4.336;2022-09-27T09:35:42;4.38;;;1.70;;
23519;SDS011;11936;50.820;4.336;2022-09-27T09:38:20;4.03;;;1.70;;
23519;SDS011;11936;50.820;4.336;2022-09-27T09:43:37;3.53;;;1.90;;
23519;SDS011;11936;50.820;4.336;2022-09-27T09:46:17;1.10;;;1.05;;
23519;SDS011;11936;50.820;4.336;2022-09-27T09:51:20;3.50;;;1.38;;
23519;SDS011;11936;50.820;4.336;2022-09-27T09:53:53;2.65;;;1.67;;
23519;SDS011;11936;50.820;4.336;2022-09-27T10:01:20;2.92;;;1.33;;
23519;SDS011;11936;50.820;4.336;2022-09-27T10:03:50;9.60;;;1.70;;
23519;SDS011;11936;50.820;4.336;2022-09-27T10:06:16;2.13;;;1.50;;
23519;SDS011;11936;50.820;4.336;2022-09-27T10:08:43;5.47;;;2.08;;
23519;SDS011;11936;50.820;4.336;2022-09-27T10:11:14;4.03;;;1.90;;
23519;SDS011;11936;50.820;4.336;2022-09-27T10:13:45;5.78;;;1.75;;
23519;SDS011;11936;50.820;4.336;2022-09-27T10:16:13;5.15;;;1.95;;
23519;SDS011;11936;50.820;4.336;2022-09-27T10:18:41;4.28;;;1.77;;
23519;SDS011;11936;50.820;4.336;2022-09-27T10:21:18;8.52;;;1.90;;
23519;SDS011;11936;50.820;4.336;2022-09-27T10:24:03;3.88;;;1.70;;
23519;SDS011;11936;50.820;4.336;2022-09-27T10:26:34;6.90;;;1.95;;
23519;SDS011;11936;50.820;4.336;2022-09-27T10:32:01;6.47;;;2.03;;
23519;SDS011;11936;50.820;4.336;2022-09-27T10:39:36;8.82;;;2.13;;
23519;SDS011;11936;50.820;4.336;2022-09-27T10:47:50;9.85;;;2.47;;
23519;SDS011;11936;50.820;4.336;2022-09-27T10:50:18;10.23;;;2.42;;
23519;SDS011;11936;50.820;4.336;2022-09-27T10:53:13;3.78;;;1.88;;
23519;SDS011;11936;50.820;4.336;2022-09-27T10:55:42;7.22;;;2.03;;
23519;SDS011;11936;50.820;4.336;2022-09-27T10:58:19;9.77;;;2.60;;
23519;SDS011;11936;50.820;4.336;2022-09-27T11:01:15;7.95;;;2.85;;
23519;SDS011;11936;50.820;4.336;2022-09-27T11:03:47;11.38;;;2.88;;
23519;SDS011;11936;50.820;4.336;2022-09-27T11:06:18;7.63;;;1.92;;
23519;SDS011;11936;50.820;4.336;2022-09-27T11:08:46;6.00;;;1.60;;
23519;SDS011;11936;50.820;4.336;2022-09-27T11:11:15;5.38;;;1.20;;
23519;SDS011;11936;50.820;4.336;2022-09-27T11:14:03;8.27;;;1.45;;
23519;SDS011;11936;50.820;4.336;2022-09-27T11:16:47;5.25;;;1.60;;
23519;SDS011;11936;50.820;4.336;2022-09-27T11:27:50;7.10;;;1.53;;
23519;SDS011;11936;50.820;4.336;2022-09-27T11:36:02;2.33;;;0.68;;
23519;SDS011;11936;50.820;4.336;2022-09-27T11:44:04;2.80;;;1.05;;
23519;SDS011;11936;50.820;4.336;2022-09-27T11:46:32;3.00;;;0.90;;
23519;SDS011;11936;50.820;4.336;2022-09-27T11:54:19;3.95;;;1.42;;
23519;SDS011;11936;50.820;4.336;2022-09-27T12:05:59;4.00;;;1.17;;
23519;SDS011;11936;50.820;4.336;2022-09-27T12:13:39;3.55;;;1.23;;
23519;SDS011;11936;50.820;4.336;2022-09-27T12:16:09;4.20;;;1.23;;
23519;SDS011;11936;50.820;4.336;2022-09-27T12:18:36;3.75;;;1.27;;
23519;SDS011;11936;50.820;4.336;2022-09-27T12:21:05;4.13;;;1.20;;
23519;SDS011;11936;50.820;4.336;2022-09-27T12:23:37;2.78;;;1.13;;
23519;SDS011;11936;50.820;4.336;2022-09-27T12:26:12;5.55;;;1.40;;
23519;SDS011;11936;50.820;4.336;2022-09-27T12:28:56;4.63;;;1.35;;
23519;SDS011;11936;50.820;4.336;2022-09-27T12:31:33;3.75;;;1.15;;
23519;SDS011;11936;50.820;4.336;2022-09-27T12:34:53;3.57;;;1.20;;
23519;SDS011;11936;50.820;4.336;2022-09-27T12:37:40;2.90;;;1.40;;
23519;SDS011;11936;50.820;4.336;2022-09-27T12:50:48;5.93;;;1.38;;
23519;SDS011;11936;50.820;4.336;2022-09-27T12:53:24;3.92;;;1.25;;
23519;SDS011;11936;50.820;4.336;2022-09-27T12:56:01;4.13;;;1.55;;
23519;SDS011;11936;50.820;4.336;2022-09-27T13:09:50;3.17;;;1.58;;
23519;SDS011;11936;50.820;4.336;2022-09-27T13:12:23;4.30;;;1.40;;
23519;SDS011;11936;50.820;4.336;2022-09-27T13:14:58;4.53;;;1.52;;
23519;SDS011;11936;50.820;4.336;2022-09-27T13:17:52;4.50;;;1.75;;
23519;SDS011;11936;50.820;4.336;2022-09-27T13:22:55;5.97;;;1.73;;
23519;SDS011;11936;50.820;4.336;2022-09-27T13:36:25;6.75;;;1.70;;
23519;SDS011;11936;50.820;4.336;2022-09-27T13:46:52;4.38;;;1.42;;
23519;SDS011;11936;50.820;4.336;2022-09-27T13:51:58;5.97;;;1.30;;
23519;SDS011;11936;50.820;4.336;2022-09-27T13:57:37;5.20;;;1.50;;
23519;SDS011;11936;50.820;4.336;2022-09-27T14:00:15;10.48;;;2.20;;
23519;SDS011;11936;50.820;4.336;2022-09-27T14:03:04;7.82;;;2.15;;
23519;SDS011;11936;50.820;4.336;2022-09-27T14:05:48;5.63;;;2.40;;
23519;SDS011;11936;50.820;4.336;2022-09-27T14:08:51;9.25;;;1.85;;
23519;SDS011;11936;50.820;4.336;2022-09-27T14:12:11;9.52;;;2.25;;
23519;SDS011;11936;50.820;4.336;2022-09-27T14:14:21;7.80;;;2.70;;
23519;SDS011;11936;50.820;4.336;2022-09-27T14:16:48;9.45;;;2.30;;
23519;SDS011;11936;50.820;4.336;2022-09-27T14:19:15;7.65;;;2.35;;
23519;SDS011;11936;50.820;4.336;2022-09-27T14:21:46;9.25;;;2.20;;
23519;SDS011;11936;50.820;4.336;2022-09-27T14:24:28;13.95;;;2.60;;
23519;SDS011;11936;50.820;4.336;2022-09-27T14:32:21;7.18;;;2.38;;
23519;SDS011;11936;50.820;4.336;2022-09-27T14:38:07;13.23;;;2.00;;
23519;SDS011;11936;50.820;4.336;2022-09-27T14:43:26;10.98;;;2.17;;
23519;SDS011;11936;50.820;4.336;2022-09-27T14:45:56;10.75;;;2.20;;
23519;SDS011;11936;50.820;4.336;2022-09-27T14:48:31;5.22;;;1.90;;
23519;SDS011;11936;50.820;4.336;2022-09-27T14:51:18;12.00;;;2.13;;
23519;SDS011;11936;50.820;4.336;2022-09-27T14:53:52;7.40;;;1.75;;
23519;SDS011;11936;50.820;4.336;2022-09-27T14:56:32;5.95;;;1.73;;
23519;SDS011;11936;50.820;4.336;2022-09-27T14:59:03;7.00;;;1.67;;
23519;SDS011;11936;50.820;4.336;2022-09-27T15:04:02;11.40;;;2.00;;
23519;SDS011;11936;50.820;4.336;2022-09-27T15:06:30;5.25;;;1.67;;
23519;SDS011;11936;50.820;4.336;2022-09-27T15:08:56;4.28;;;1.75;;
23519;SDS011;11936;50.820;4.336;2022-09-27T15:11:22;6.03;;;1.67;;
23519;SDS011;11936;50.820;4.336;2022-09-27T15:13:48;4.38;;;2.10;;
23519;SDS011;11936;50.820;4.336;2022-09-27T15:16:17;4.28;;;1.80;;
23519;SDS011;11936;50.820;4.336;2022-09-27T15:18:46;6.63;;;1.70;;
23519;SDS011;11936;50.820;4.336;2022-09-27T15:23:51;5.63;;;1.50;;
23519;SDS011;11936;50.820;4.336;2022-09-27T15:26:24;6.30;;;1.60;;
23519;SDS011;11936;50.820;4.336;2022-09-27T15:28:58;4.82;;;1.63;;
23519;SDS011;11936;50.820;4.336;2022-09-27T15:31:30;3.58;;;1.05;;
23519;SDS011;11936;50.820;4.336;2022-09-27T15:34:00;4.50;;;1.48;;
23519;SDS011;11936;50.820;4.336;2022-09-27T15:39:15;4.75;;;1.33;;
23519;SDS011;11936;50.820;4.336;2022-09-27T15:41:59;3.13;;;1.27;;
23519;SDS011;11936;50.820;4.336;2022-09-27T15:44:36;4.70;;;1.70;;
23519;SDS011;11936;50.820;4.336;2022-09-27T15:49:58;12.88;;;1.40;;
23519;SDS011;11936;50.820;4.336;2022-09-27T15:52:55;4.38;;;1.40;;
23519;SDS011;11936;50.820;4.336;2022-09-27T15:55:22;2.00;;;0.80;;
23519;SDS011;11936;50.820;4.336;2022-09-27T15:57:51;4.70;;;1.38;;
23519;SDS011;11936;50.820;4.336;2022-09-27T16:00:26;6.38;;;1.52;;
23519;SDS011;11936;50.820;4.336;2022-09-27T16:02:53;3.90;;;1.00;;
23519;SDS011;11936;50.820;4.336;2022-09-27T16:05:19;4.13;;;1.42;;
23519;SDS011;11936;50.820;4.336;2022-09-27T16:07:44;6.10;;;1.40;;
23519;SDS011;11936;50.820;4.336;2022-09-27T16:10:17;7.13;;;1.85;;
23519;SDS011;11936;50.820;4.336;2022-09-27T16:12:43;6.32;;;1.67;;
23519;SDS011;11936;50.820;4.336;2022-09-27T16:15:10;7.30;;;2.10;;
23519;SDS011;11936;50.820;4.336;2022-09-27T16:17:36;7.57;;;1.70;;
23519;SDS011;11936;50.820;4.336;2022-09-27T16:20:03;6.13;;;1.65;;
23519;SDS011;11936;50.820;4.336;2022-09-27T16:22:30;4.03;;;1.50;;
23519;SDS011;11936;50.820;4.336;2022-09-27T16:24:55;5.25;;;1.70;;
23519;SDS011;11936;50.820;4.336;2022-09-27T16:27:24;5.20;;;1.50;;
23519;SDS011;11936;50.820;4.336;2022-09-27T16:29:51;2.58;;;1.38;;
23519;SDS011;11936;50.820;4.336;2022-09-27T16:32:17;2.50;;;1.55;;
23519;SDS011;11936;50.820;4.336;2022-09-27T16:34:43;5.78;;;1.63;;
23519;SDS011;11936;50.820;4.336;2022-09-27T16:37:08;6.50;;;2.42;;
23519;SDS011;11936;50.820;4.336;2022-09-27T16:39:34;5.88;;;2.22;;
23519;SDS011;11936;50.820;4.336;2022-09-27T16:42:00;4.97;;;2.10;;
23519;SDS011;11936;50.820;4.336;2022-09-27T16:44:29;6.50;;;1.88;;
23519;SDS011;11936;50.820;4.336;2022-09-27T16:46:55;5.10;;;1.48;;
23519;SDS011;11936;50.820;4.336;2022-09-27T16:49:21;7.13;;;1.75;;
23519;SDS011;11936;50.820;4.336;2022-09-27T16:52:05;7.47;;;1.77;;
23519;SDS011;11936;50.820;4.336;2022-09-27T16:54:30;6.25;;;2.45;;
23519;SDS011;11936;50.820;4.336;2022-09-27T16:56:57;5.22;;;1.52;;
23519;SDS011;11936;50.820;4.336;2022-09-27T16:59:23;5.65;;;1.75;;
23519;SDS011;11936;50.820;4.336;2022-09-27T17:01:49;10.73;;;2.38;;
23519;SDS011;11936;50.820;4.336;2022-09-27T17:04:15;9.90;;;3.13;;
23519;SDS011;11936;50.820;4.336;2022-09-27T17:06:41;8.27;;;2.30;;
23519;SDS011;11936;50.820;4.336;2022-09-27T17:09:07;3.47;;;2.35;;
23519;SDS011;11936;50.820;4.336;2022-09-27T17:11:33;6.18;;;2.42;;
23519;SDS011;11936;50.820;4.336;2022-09-27T17:13:59;6.63;;;2.25;;
23519;SDS011;11936;50.820;4.336;2022-09-27T17:16:24;4.93;;;2.17;;
23519;SDS011;11936;50.820;4.336;2022-09-27T17:18:52;7.65;;;2.40;;
23519;SDS011;11936;50.820;4.336;2022-09-27T17:21:17;4.03;;;2.08;;
23519;SDS011;11936;50.820;4.336;2022-09-27T17:23:43;10.10;;;2.15;;
23519;SDS011;11936;50.820;4.336;2022-09-27T17:26:19;7.13;;;2.70;;
23519;SDS011;11936;50.820;4.336;2022-09-27T17:28:46;7.45;;;2.40;;
23519;SDS011;11936;50.820;4.336;2022-09-27T17:31:13;4.55;;;1.73;;
23519;SDS011;11936;50.820;4.336;2022-09-27T17:33:42;8.43;;;2.30;;
23519;SDS011;11936;50.820;4.336;2022-09-27T17:36:12;4.90;;;1.88;;
23519;SDS011;11936;50.820;4.336;2022-09-27T17:38:42;5.10;;;1.63;;
23519;SDS011;11936;50.820;4.336;2022-09-27T17:41:10;3.60;;;1.55;;
23519;SDS011;11936;50.820;4.336;2022-09-27T17:43:38;8.27;;;2.33;;
23519;SDS011;11936;50.820;4.336;2022-09-27T17:46:11;7.82;;;2.30;;
23519;SDS011;11936;50.820;4.336;2022-09-27T17:48:36;6.47;;;2.63;;
23519;SDS011;11936;50.820;4.336;2022-09-27T17:51:22;8.35;;;2.70;;
23519;SDS011;11936;50.820;4.336;2022-09-27T17:53:48;4.50;;;2.10;;
23519;SDS011;11936;50.820;4.336;2022-09-27T17:56:14;7.47;;;2.30;;
23519;SDS011;11936;50.820;4.336;2022-09-27T17:58:44;5.80;;;2.30;;
23519;SDS011;11936;50.820;4.336;2022-09-27T18:01:17;5.28;;;1.58;;
23519;SDS011;11936;50.820;4.336;2022-09-27T18:03:44;7.45;;;2.40;;
23519;SDS011;11936;50.820;4.336;2022-09-27T18:06:11;6.03;;;2.13;;
23519;SDS011;11936;50.820;4.336;2022-09-27T18:08:42;6.55;;;2.78;;
23519;SDS011;11936;50.820;4.336;2022-09-27T18:11:10;6.18;;;2.17;;
23519;SDS011;11936;50.820;4.336;2022-09-27T18:13:37;8.27;;;2.40;;
23519;SDS011;11936;50.820;4.336;2022-09-27T18:16:07;10.52;;;3.50;;
23519;SDS011;11936;50.820;4.336;2022-09-27T18:18:37;8.63;;;2.85;;